sensor_id;sensor_type;location;lat;lon;timestamp;P1;durP1;ratioP1;P2;durP2;ratioP2
53519;SDS011;39397;53.204;5.778;2023-02-21T00:00:54;21.05;;;8.07;;
53519;SDS011;39397;53.204;5.778;2023-02-21T00:03:38;22.15;;;7.88;;
53519;SDS011;39397;53.204;5.778;2023-02-21T00:06:22;25.13;;;7.95;;
53519;SDS011;39397;53.204;5.778;2023-02-21T00:09:06;24.77;;;8.13;;
53519;SDS011;39397;53.204;5.778;2023-02-21T00:11:50;18.38;;;7.45;;
53519;SDS011;39397;53.204;5.778;2023-02-21T00:14:35;22.95;;;7.68;;
53519;SDS011;39397;53.204;5.778;2023-02-21T00:17:20;20.88;;;7.03;;
53519;SDS011;39397;53.204;5.778;2023-02-21T00:20:04;18.00;;;7.85;;
53519;SDS011;39397;53.204;5.778;2023-02-21T00:22:48;28.23;;;8.50;;
53519;SDS011;39397;53.204;5.778;2023-02-21T00:25:33;21.52;;;6.72;;
53519;SDS011;39397;53.204;5.778;2023-02-21T00:28:17;19.58;;;7.32;;
53519;SDS011;39397;53.204;5.778;2023-02-21T00:31:01;19.77;;;6.35;;
53519;SDS011;39397;53.204;5.778;2023-02-21T00:33:44;24.15;;;6.50;;
53519;SDS011;39397;53.204;5.778;2023-02-21T00:36:29;21.70;;;7.40;;
53519;SDS011;39397;53.204;5.778;2023-02-21T00:39:13;15.00;;;6.20;;
53519;SDS011;39397;53.204;5.778;2023-02-21T00:41:57;23.98;;;7.22;;
53519;SDS011;39397;53.204;5.778;2023-02-21T00:44:41;28.15;;;7.15;;
53519;SDS011;39397;53.204;5.778;2023-02-21T00:47:25;17.85;;;6.28;;
53519;SDS011;39397;53.204;5.778;2023-02-21T00:50:09;23.20;;;7.45;;
53519;SDS011;39397;53.204;5.778;2023-02-21T00:52:53;23.08;;;7.95;;
53519;SDS011;39397;53.204;5.778;2023-02-21T00:55:37;20.85;;;7.65;;
53519;SDS011;39397;53.204;5.778;2023-02-21T00:58:21;27.38;;;9.43;;
53519;SDS011;39397;53.204;5.778;2023-02-21T01:01:05;28.20;;;9.35;;
53519;SDS011;39397;53.204;5.778;2023-02-21T01:03:50;27.45;;;9.07;;
53519;SDS011;39397;53.204;5.778;2023-02-21T01:06:33;25.55;;;9.30;;
53519;SDS011;39397;53.204;5.778;2023-02-21T01:09:17;22.27;;;8.93;;
53519;SDS011;39397;53.204;5.778;2023-02-21T01:12:02;24.85;;;10.50;;
53519;SDS011;39397;53.204;5.778;2023-02-21T01:14:46;27.13;;;10.88;;
53519;SDS011;39397;53.204;5.778;2023-02-21T01:17:30;32.28;;;11.35;;
53519;SDS011;39397;53.204;5.778;2023-02-21T01:20:14;31.30;;;10.68;;
53519;SDS011;39397;53.204;5.778;2023-02-21T01:22:58;25.17;;;10.20;;
53519;SDS011;39397;53.204;5.778;2023-02-21T01:25:42;23.83;;;9.93;;
53519;SDS011;39397;53.204;5.778;2023-02-21T01:28:26;28.90;;;11.30;;
53519;SDS011;39397;53.204;5.778;2023-02-21T01:31:10;26.52;;;11.43;;
53519;SDS011;39397;53.204;5.778;2023-02-21T01:34:00;24.83;;;11.27;;
53519;SDS011;39397;53.204;5.778;2023-02-21T01:36:44;26.15;;;10.93;;
53519;SDS011;39397;53.204;5.778;2023-02-21T01:39:28;26.55;;;10.57;;
53519;SDS011;39397;53.204;5.778;2023-02-21T01:42:12;27.30;;;10.38;;
53519;SDS011;39397;53.204;5.778;2023-02-21T01:48:21;22.30;;;10.93;;
53519;SDS011;39397;53.204;5.778;2023-02-21T01:51:07;24.33;;;11.02;;
53519;SDS011;39397;53.204;5.778;2023-02-21T01:53:54;24.40;;;10.77;;
53519;SDS011;39397;53.204;5.778;2023-02-21T01:56:39;23.90;;;11.63;;
53519;SDS011;39397;53.204;5.778;2023-02-21T01:59:24;29.75;;;11.05;;
53519;SDS011;39397;53.204;5.778;2023-02-21T02:02:14;26.70;;;12.20;;
53519;SDS011;39397;53.204;5.778;2023-02-21T02:05:20;27.83;;;11.63;;
53519;SDS011;39397;53.204;5.778;2023-02-21T02:08:05;29.42;;;12.30;;
53519;SDS011;39397;53.204;5.778;2023-02-21T02:10:50;27.40;;;11.63;;
53519;SDS011;39397;53.204;5.778;2023-02-21T02:39:34;27.08;;;11.07;;
53519;SDS011;39397;53.204;5.778;2023-02-21T02:42:37;20.17;;;10.23;;
53519;SDS011;39397;53.204;5.778;2023-02-21T02:47:51;19.92;;;9.70;;
53519;SDS011;39397;53.204;5.778;2023-02-21T02:50:20;26.15;;;11.02;;
53519;SDS011;39397;53.204;5.778;2023-02-21T02:52:49;20.45;;;10.38;;
53519;SDS011;39397;53.204;5.778;2023-02-21T02:58:18;23.30;;;11.00;;
53519;SDS011;39397;53.204;5.778;2023-02-21T03:00:48;24.08;;;12.35;;
53519;SDS011;39397;53.204;5.778;2023-02-21T03:06:33;26.80;;;13.00;;
53519;SDS011;39397;53.204;5.778;2023-02-21T03:11:42;24.33;;;11.90;;
53519;SDS011;39397;53.204;5.778;2023-02-21T03:14:36;23.90;;;12.63;;
53519;SDS011;39397;53.204;5.778;2023-02-21T03:17:11;23.73;;;12.65;;
53519;SDS011;39397;53.204;5.778;2023-02-21T03:19:40;27.35;;;13.68;;
53519;SDS011;39397;53.204;5.778;2023-02-21T03:22:15;28.13;;;14.18;;
53519;SDS011;39397;53.204;5.778;2023-02-21T03:24:46;26.77;;;13.90;;
53519;SDS011;39397;53.204;5.778;2023-02-21T03:27:14;26.65;;;13.05;;
53519;SDS011;39397;53.204;5.778;2023-02-21T03:29:41;25.38;;;13.50;;
53519;SDS011;39397;53.204;5.778;2023-02-21T03:32:28;29.48;;;15.45;;
53519;SDS011;39397;53.204;5.778;2023-02-21T03:34:56;28.25;;;13.35;;
53519;SDS011;39397;53.204;5.778;2023-02-21T03:37:33;35.08;;;15.65;;
53519;SDS011;39397;53.204;5.778;2023-02-21T03:40:07;29.55;;;15.95;;
53519;SDS011;39397;53.204;5.778;2023-02-21T03:42:35;25.02;;;15.30;;
53519;SDS011;39397;53.204;5.778;2023-02-21T03:45:01;29.13;;;14.63;;
53519;SDS011;39397;53.204;5.778;2023-02-21T03:47:27;24.10;;;14.38;;
53519;SDS011;39397;53.204;5.778;2023-02-21T03:49:52;32.13;;;14.95;;
53519;SDS011;39397;53.204;5.778;2023-02-21T03:52:18;26.23;;;14.88;;
53519;SDS011;39397;53.204;5.778;2023-02-21T03:54:44;31.42;;;14.13;;
53519;SDS011;39397;53.204;5.778;2023-02-21T03:57:09;26.30;;;14.20;;
53519;SDS011;39397;53.204;5.778;2023-02-21T03:59:35;23.98;;;14.57;;
53519;SDS011;39397;53.204;5.778;2023-02-21T04:02:01;24.17;;;14.45;;
53519;SDS011;39397;53.204;5.778;2023-02-21T04:04:26;28.50;;;15.15;;
53519;SDS011;39397;53.204;5.778;2023-02-21T04:06:52;23.48;;;13.98;;
53519;SDS011;39397;53.204;5.778;2023-02-21T04:09:18;25.83;;;13.63;;
53519;SDS011;39397;53.204;5.778;2023-02-21T04:11:44;27.38;;;12.98;;
53519;SDS011;39397;53.204;5.778;2023-02-21T04:14:11;28.65;;;15.30;;
53519;SDS011;39397;53.204;5.778;2023-02-21T04:16:37;25.65;;;13.88;;
53519;SDS011;39397;53.204;5.778;2023-02-21T04:19:02;27.13;;;14.73;;
53519;SDS011;39397;53.204;5.778;2023-02-21T04:21:28;28.73;;;13.27;;
53519;SDS011;39397;53.204;5.778;2023-02-21T04:23:54;24.55;;;15.40;;
53519;SDS011;39397;53.204;5.778;2023-02-21T04:26:19;26.10;;;15.02;;
53519;SDS011;39397;53.204;5.778;2023-02-21T04:28:45;25.20;;;14.20;;
53519;SDS011;39397;53.204;5.778;2023-02-21T04:31:13;26.17;;;14.88;;
53519;SDS011;39397;53.204;5.778;2023-02-21T04:33:39;28.63;;;15.07;;
53519;SDS011;39397;53.204;5.778;2023-02-21T04:36:05;28.92;;;14.73;;
53519;SDS011;39397;53.204;5.778;2023-02-21T04:38:31;27.88;;;15.65;;
53519;SDS011;39397;53.204;5.778;2023-02-21T04:40:56;28.40;;;15.68;;
53519;SDS011;39397;53.204;5.778;2023-02-21T04:43:22;27.98;;;14.20;;
53519;SDS011;39397;53.204;5.778;2023-02-21T04:45:48;28.38;;;14.52;;
53519;SDS011;39397;53.204;5.778;2023-02-21T04:48:13;29.42;;;15.50;;
53519;SDS011;39397;53.204;5.778;2023-02-21T04:50:39;24.95;;;14.77;;
53519;SDS011;39397;53.204;5.778;2023-02-21T04:53:05;29.90;;;15.32;;
53519;SDS011;39397;53.204;5.778;2023-02-21T04:55:31;26.92;;;15.27;;
53519;SDS011;39397;53.204;5.778;2023-02-21T04:57:56;24.52;;;14.95;;
53519;SDS011;39397;53.204;5.778;2023-02-21T05:00:22;33.40;;;16.20;;
53519;SDS011;39397;53.204;5.778;2023-02-21T05:02:48;33.58;;;15.75;;
53519;SDS011;39397;53.204;5.778;2023-02-21T05:05:14;29.00;;;15.85;;
53519;SDS011;39397;53.204;5.778;2023-02-21T05:07:40;28.13;;;15.65;;
53519;SDS011;39397;53.204;5.778;2023-02-21T05:10:06;23.73;;;14.85;;
53519;SDS011;39397;53.204;5.778;2023-02-21T05:12:34;28.25;;;16.48;;
53519;SDS011;39397;53.204;5.778;2023-02-21T05:15:01;26.70;;;15.80;;
53519;SDS011;39397;53.204;5.778;2023-02-21T05:17:27;26.25;;;15.70;;
53519;SDS011;39397;53.204;5.778;2023-02-21T05:19:53;28.25;;;15.23;;
53519;SDS011;39397;53.204;5.778;2023-02-21T05:22:19;28.25;;;16.00;;
53519;SDS011;39397;53.204;5.778;2023-02-21T05:24:46;30.92;;;16.58;;
53519;SDS011;39397;53.204;5.778;2023-02-21T05:27:13;30.73;;;17.70;;
53519;SDS011;39397;53.204;5.778;2023-02-21T05:29:50;27.52;;;15.98;;
53519;SDS011;39397;53.204;5.778;2023-02-21T05:32:18;31.55;;;16.90;;
53519;SDS011;39397;53.204;5.778;2023-02-21T05:34:45;37.88;;;17.48;;
53519;SDS011;39397;53.204;5.778;2023-02-21T05:37:15;28.80;;;15.32;;
53519;SDS011;39397;53.204;5.778;2023-02-21T05:39:41;31.58;;;19.60;;
53519;SDS011;39397;53.204;5.778;2023-02-21T05:42:07;31.27;;;17.30;;
53519;SDS011;39397;53.204;5.778;2023-02-21T05:44:33;31.63;;;16.80;;
53519;SDS011;39397;53.204;5.778;2023-02-21T05:46:59;32.33;;;17.52;;
53519;SDS011;39397;53.204;5.778;2023-02-21T05:49:26;33.67;;;18.65;;
53519;SDS011;39397;53.204;5.778;2023-02-21T05:51:52;37.20;;;18.90;;
53519;SDS011;39397;53.204;5.778;2023-02-21T05:54:19;39.40;;;18.25;;
53519;SDS011;39397;53.204;5.778;2023-02-21T05:56:46;32.58;;;17.73;;
53519;SDS011;39397;53.204;5.778;2023-02-21T05:59:13;31.73;;;16.85;;
53519;SDS011;39397;53.204;5.778;2023-02-21T06:01:40;33.28;;;18.52;;
53519;SDS011;39397;53.204;5.778;2023-02-21T06:04:07;33.72;;;17.67;;
53519;SDS011;39397;53.204;5.778;2023-02-21T06:06:33;37.13;;;17.63;;
53519;SDS011;39397;53.204;5.778;2023-02-21T06:08:59;38.20;;;18.58;;
53519;SDS011;39397;53.204;5.778;2023-02-21T06:11:28;33.40;;;17.63;;
53519;SDS011;39397;53.204;5.778;2023-02-21T06:13:57;37.22;;;17.83;;
53519;SDS011;39397;53.204;5.778;2023-02-21T06:16:25;34.60;;;17.85;;
53519;SDS011;39397;53.204;5.778;2023-02-21T06:18:53;36.75;;;18.05;;
53519;SDS011;39397;53.204;5.778;2023-02-21T06:21:22;34.83;;;17.75;;
53519;SDS011;39397;53.204;5.778;2023-02-21T06:23:48;33.00;;;17.40;;
53519;SDS011;39397;53.204;5.778;2023-02-21T06:26:14;30.50;;;18.40;;
53519;SDS011;39397;53.204;5.778;2023-02-21T06:28:45;28.17;;;17.05;;
53519;SDS011;39397;53.204;5.778;2023-02-21T06:31:11;32.85;;;18.45;;
53519;SDS011;39397;53.204;5.778;2023-02-21T06:33:38;36.67;;;18.75;;
53519;SDS011;39397;53.204;5.778;2023-02-21T06:36:04;30.80;;;17.50;;
53519;SDS011;39397;53.204;5.778;2023-02-21T06:38:32;30.50;;;17.85;;
53519;SDS011;39397;53.204;5.778;2023-02-21T06:40:58;31.92;;;18.33;;
53519;SDS011;39397;53.204;5.778;2023-02-21T06:43:24;33.22;;;18.85;;
53519;SDS011;39397;53.204;5.778;2023-02-21T06:45:50;35.13;;;18.48;;
53519;SDS011;39397;53.204;5.778;2023-02-21T06:48:16;33.67;;;18.42;;
53519;SDS011;39397;53.204;5.778;2023-02-21T06:50:42;35.28;;;17.52;;
53519;SDS011;39397;53.204;5.778;2023-02-21T06:53:08;29.63;;;16.70;;
53519;SDS011;39397;53.204;5.778;2023-02-21T06:55:34;32.28;;;16.75;;
53519;SDS011;39397;53.204;5.778;2023-02-21T06:57:59;32.17;;;17.10;;
53519;SDS011;39397;53.204;5.778;2023-02-21T07:00:25;37.70;;;18.60;;
53519;SDS011;39397;53.204;5.778;2023-02-21T07:02:52;34.15;;;17.92;;
53519;SDS011;39397;53.204;5.778;2023-02-21T07:05:18;31.52;;;17.00;;
53519;SDS011;39397;53.204;5.778;2023-02-21T07:07:44;41.20;;;21.40;;
53519;SDS011;39397;53.204;5.778;2023-02-21T07:10:10;37.00;;;19.90;;
53519;SDS011;39397;53.204;5.778;2023-02-21T07:12:37;31.75;;;18.98;;
53519;SDS011;39397;53.204;5.778;2023-02-21T07:15:03;38.85;;;19.08;;
53519;SDS011;39397;53.204;5.778;2023-02-21T07:17:30;35.38;;;18.50;;
53519;SDS011;39397;53.204;5.778;2023-02-21T07:19:55;37.15;;;18.30;;
53519;SDS011;39397;53.204;5.778;2023-02-21T07:22:21;34.40;;;19.27;;
53519;SDS011;39397;53.204;5.778;2023-02-21T07:24:50;37.92;;;20.42;;
53519;SDS011;39397;53.204;5.778;2023-02-21T07:27:20;34.13;;;17.85;;
53519;SDS011;39397;53.204;5.778;2023-02-21T07:29:49;36.85;;;18.48;;
53519;SDS011;39397;53.204;5.778;2023-02-21T07:32:15;36.97;;;20.13;;
53519;SDS011;39397;53.204;5.778;2023-02-21T07:34:42;33.47;;;19.63;;
53519;SDS011;39397;53.204;5.778;2023-02-21T07:37:08;35.15;;;20.23;;
53519;SDS011;39397;53.204;5.778;2023-02-21T07:39:34;38.78;;;20.23;;
53519;SDS011;39397;53.204;5.778;2023-02-21T07:42:00;37.85;;;20.48;;
53519;SDS011;39397;53.204;5.778;2023-02-21T07:44:26;41.33;;;20.83;;
53519;SDS011;39397;53.204;5.778;2023-02-21T07:46:51;38.45;;;21.08;;
53519;SDS011;39397;53.204;5.778;2023-02-21T07:49:19;31.80;;;19.40;;
53519;SDS011;39397;53.204;5.778;2023-02-21T07:51:44;35.17;;;19.65;;
53519;SDS011;39397;53.204;5.778;2023-02-21T07:54:10;34.47;;;20.35;;
53519;SDS011;39397;53.204;5.778;2023-02-21T07:56:41;35.28;;;19.85;;
53519;SDS011;39397;53.204;5.778;2023-02-21T07:59:07;40.88;;;20.95;;
53519;SDS011;39397;53.204;5.778;2023-02-21T08:01:33;32.03;;;19.25;;
53519;SDS011;39397;53.204;5.778;2023-02-21T08:03:59;30.95;;;18.52;;
53519;SDS011;39397;53.204;5.778;2023-02-21T08:06:24;34.45;;;19.40;;
53519;SDS011;39397;53.204;5.778;2023-02-21T08:08:50;34.15;;;19.13;;
53519;SDS011;39397;53.204;5.778;2023-02-21T08:11:16;31.30;;;18.38;;
53519;SDS011;39397;53.204;5.778;2023-02-21T08:13:41;29.77;;;17.73;;
53519;SDS011;39397;53.204;5.778;2023-02-21T08:16:07;33.95;;;19.27;;
53519;SDS011;39397;53.204;5.778;2023-02-21T08:18:33;28.58;;;16.75;;
53519;SDS011;39397;53.204;5.778;2023-02-21T08:20:58;29.58;;;17.05;;
53519;SDS011;39397;53.204;5.778;2023-02-21T08:23:24;32.67;;;16.35;;
53519;SDS011;39397;53.204;5.778;2023-02-21T08:25:50;25.95;;;17.00;;
53519;SDS011;39397;53.204;5.778;2023-02-21T08:28:16;29.15;;;18.48;;
53519;SDS011;39397;53.204;5.778;2023-02-21T08:30:42;29.65;;;16.85;;
53519;SDS011;39397;53.204;5.778;2023-02-21T08:33:08;28.95;;;17.98;;
53519;SDS011;39397;53.204;5.778;2023-02-21T08:35:34;29.35;;;16.58;;
53519;SDS011;39397;53.204;5.778;2023-02-21T08:38:00;23.23;;;17.20;;
53519;SDS011;39397;53.204;5.778;2023-02-21T08:40:30;30.17;;;16.83;;
53519;SDS011;39397;53.204;5.778;2023-02-21T08:42:56;26.75;;;15.88;;
53519;SDS011;39397;53.204;5.778;2023-02-21T08:45:24;26.05;;;16.25;;
53519;SDS011;39397;53.204;5.778;2023-02-21T08:47:50;23.38;;;15.73;;
53519;SDS011;39397;53.204;5.778;2023-02-21T08:50:17;26.48;;;15.80;;
53519;SDS011;39397;53.204;5.778;2023-02-21T08:52:45;23.58;;;15.65;;
53519;SDS011;39397;53.204;5.778;2023-02-21T08:55:11;23.98;;;16.23;;
53519;SDS011;39397;53.204;5.778;2023-02-21T08:57:37;23.63;;;16.20;;
53519;SDS011;39397;53.204;5.778;2023-02-21T09:00:03;25.13;;;15.25;;
53519;SDS011;39397;53.204;5.778;2023-02-21T09:02:38;27.50;;;16.38;;
53519;SDS011;39397;53.204;5.778;2023-02-21T09:05:05;23.80;;;16.02;;
53519;SDS011;39397;53.204;5.778;2023-02-21T09:07:42;23.60;;;15.07;;
53519;SDS011;39397;53.204;5.778;2023-02-21T09:10:10;24.05;;;15.00;;
53519;SDS011;39397;53.204;5.778;2023-02-21T09:12:36;25.00;;;16.05;;
53519;SDS011;39397;53.204;5.778;2023-02-21T09:15:02;24.25;;;15.40;;
53519;SDS011;39397;53.204;5.778;2023-02-21T09:17:29;27.25;;;16.23;;
53519;SDS011;39397;53.204;5.778;2023-02-21T09:19:58;26.00;;;15.88;;
53519;SDS011;39397;53.204;5.778;2023-02-21T09:22:25;23.98;;;16.38;;
53519;SDS011;39397;53.204;5.778;2023-02-21T09:24:50;22.00;;;14.43;;
53519;SDS011;39397;53.204;5.778;2023-02-21T09:27:16;20.20;;;14.45;;
53519;SDS011;39397;53.204;5.778;2023-02-21T09:29:45;21.58;;;14.52;;
53519;SDS011;39397;53.204;5.778;2023-02-21T09:32:11;21.35;;;13.95;;
53519;SDS011;39397;53.204;5.778;2023-02-21T09:34:38;23.65;;;14.52;;
53519;SDS011;39397;53.204;5.778;2023-02-21T09:37:04;22.20;;;14.48;;
53519;SDS011;39397;53.204;5.778;2023-02-21T09:39:31;18.98;;;13.57;;
53519;SDS011;39397;53.204;5.778;2023-02-21T09:41:56;21.65;;;13.75;;
53519;SDS011;39397;53.204;5.778;2023-02-21T09:44:23;19.63;;;12.88;;
53519;SDS011;39397;53.204;5.778;2023-02-21T09:47:03;17.85;;;12.93;;
53519;SDS011;39397;53.204;5.778;2023-02-21T09:49:32;18.73;;;12.52;;
53519;SDS011;39397;53.204;5.778;2023-02-21T09:52:03;19.50;;;12.25;;
53519;SDS011;39397;53.204;5.778;2023-02-21T09:54:34;15.38;;;12.50;;
53519;SDS011;39397;53.204;5.778;2023-02-21T09:57:04;19.50;;;12.90;;
53519;SDS011;39397;53.204;5.778;2023-02-21T09:59:31;17.38;;;11.93;;
53519;SDS011;39397;53.204;5.778;2023-02-21T10:07:17;19.67;;;12.65;;
53519;SDS011;39397;53.204;5.778;2023-02-21T10:18:03;18.63;;;12.68;;
53519;SDS011;39397;53.204;5.778;2023-02-21T10:20:56;16.67;;;11.88;;
53519;SDS011;39397;53.204;5.778;2023-02-21T10:26:04;19.58;;;12.65;;
53519;SDS011;39397;53.204;5.778;2023-02-21T10:28:33;15.95;;;11.27;;
53519;SDS011;39397;53.204;5.778;2023-02-21T10:31:02;18.10;;;10.95;;
53519;SDS011;39397;53.204;5.778;2023-02-21T10:33:38;15.27;;;11.15;;
53519;SDS011;39397;53.204;5.778;2023-02-21T10:36:16;14.32;;;10.32;;
53519;SDS011;39397;53.204;5.778;2023-02-21T10:41:41;14.68;;;10.88;;
53519;SDS011;39397;53.204;5.778;2023-02-21T10:44:18;15.38;;;10.45;;
53519;SDS011;39397;53.204;5.778;2023-02-21T10:46:54;15.52;;;10.45;;
53519;SDS011;39397;53.204;5.778;2023-02-21T10:49:43;15.50;;;10.60;;
53519;SDS011;39397;53.204;5.778;2023-02-21T10:52:15;17.23;;;11.45;;
53519;SDS011;39397;53.204;5.778;2023-02-21T10:57:36;14.55;;;9.02;;
53519;SDS011;39397;53.204;5.778;2023-02-21T11:00:05;15.95;;;10.57;;
53519;SDS011;39397;53.204;5.778;2023-02-21T11:02:38;15.05;;;10.20;;
53519;SDS011;39397;53.204;5.778;2023-02-21T11:05:15;18.63;;;11.73;;
53519;SDS011;39397;53.204;5.778;2023-02-21T11:08:05;17.40;;;11.75;;
53519;SDS011;39397;53.204;5.778;2023-02-21T11:10:36;18.40;;;10.00;;
53519;SDS011;39397;53.204;5.778;2023-02-21T11:15:37;15.25;;;9.65;;
53519;SDS011;39397;53.204;5.778;2023-02-21T11:18:10;17.42;;;10.07;;
53519;SDS011;39397;53.204;5.778;2023-02-21T11:23:03;13.32;;;9.52;;
53519;SDS011;39397;53.204;5.778;2023-02-21T11:25:32;13.30;;;10.05;;
53519;SDS011;39397;53.204;5.778;2023-02-21T11:30:30;13.43;;;8.77;;
53519;SDS011;39397;53.204;5.778;2023-02-21T11:33:01;14.57;;;10.20;;
53519;SDS011;39397;53.204;5.778;2023-02-21T11:35:36;17.27;;;11.88;;
53519;SDS011;39397;53.204;5.778;2023-02-21T11:38:08;14.88;;;10.02;;
53519;SDS011;39397;53.204;5.778;2023-02-21T11:40:55;18.90;;;10.95;;
53519;SDS011;39397;53.204;5.778;2023-02-21T11:48:38;18.77;;;11.25;;
53519;SDS011;39397;53.204;5.778;2023-02-21T11:51:50;14.45;;;10.32;;
53519;SDS011;39397;53.204;5.778;2023-02-21T11:54:38;15.60;;;10.27;;
53519;SDS011;39397;53.204;5.778;2023-02-21T12:02:50;15.73;;;10.15;;
53519;SDS011;39397;53.204;5.778;2023-02-21T12:08:23;14.55;;;10.90;;
53519;SDS011;39397;53.204;5.778;2023-02-21T12:13:48;19.70;;;11.88;;
53519;SDS011;39397;53.204;5.778;2023-02-21T12:21:54;16.42;;;11.32;;
53519;SDS011;39397;53.204;5.778;2023-02-21T12:27:21;17.00;;;11.68;;
53519;SDS011;39397;53.204;5.778;2023-02-21T12:32:58;22.67;;;13.15;;
53519;SDS011;39397;53.204;5.778;2023-02-21T12:36:21;15.80;;;11.23;;
53519;SDS011;39397;53.204;5.778;2023-02-21T12:41:24;16.48;;;11.63;;
53519;SDS011;39397;53.204;5.778;2023-02-21T12:44:00;17.42;;;12.02;;
53519;SDS011;39397;53.204;5.778;2023-02-21T12:46:38;17.65;;;11.73;;
53519;SDS011;39397;53.204;5.778;2023-02-21T12:52:13;15.97;;;11.83;;
53519;SDS011;39397;53.204;5.778;2023-02-21T12:57:52;14.38;;;11.43;;
53519;SDS011;39397;53.204;5.778;2023-02-21T13:00:30;16.92;;;11.27;;
53519;SDS011;39397;53.204;5.778;2023-02-21T13:06:20;15.57;;;11.80;;
53519;SDS011;39397;53.204;5.778;2023-02-21T13:11:52;19.88;;;11.68;;
53519;SDS011;39397;53.204;5.778;2023-02-21T13:14:44;17.75;;;12.82;;
53519;SDS011;39397;53.204;5.778;2023-02-21T13:17:23;19.55;;;12.27;;
53519;SDS011;39397;53.204;5.778;2023-02-21T13:19:54;16.13;;;12.63;;
53519;SDS011;39397;53.204;5.778;2023-02-21T13:28:36;17.50;;;12.35;;
53519;SDS011;39397;53.204;5.778;2023-02-21T13:31:03;14.98;;;13.13;;
53519;SDS011;39397;53.204;5.778;2023-02-21T13:33:35;16.02;;;12.93;;
53519;SDS011;39397;53.204;5.778;2023-02-21T13:36:13;17.35;;;12.55;;
53519;SDS011;39397;53.204;5.778;2023-02-21T13:39:11;17.35;;;13.20;;
53519;SDS011;39397;53.204;5.778;2023-02-21T13:41:39;17.17;;;13.75;;
53519;SDS011;39397;53.204;5.778;2023-02-21T13:44:29;18.85;;;13.90;;
53519;SDS011;39397;53.204;5.778;2023-02-21T13:49:51;16.58;;;13.32;;
53519;SDS011;39397;53.204;5.778;2023-02-21T14:02:58;17.25;;;12.48;;
53519;SDS011;39397;53.204;5.778;2023-02-21T14:11:18;20.15;;;12.23;;
53519;SDS011;39397;53.204;5.778;2023-02-21T14:13:51;15.93;;;12.52;;
53519;SDS011;39397;53.204;5.778;2023-02-21T14:19:23;17.20;;;12.07;;
53519;SDS011;39397;53.204;5.778;2023-02-21T14:25:02;16.65;;;12.98;;
53519;SDS011;39397;53.204;5.778;2023-02-21T14:27:39;16.58;;;11.65;;
53519;SDS011;39397;53.204;5.778;2023-02-21T14:32:40;19.17;;;13.45;;
53519;SDS011;39397;53.204;5.778;2023-02-21T14:37:42;19.30;;;12.32;;
53519;SDS011;39397;53.204;5.778;2023-02-21T14:40:25;19.13;;;12.43;;
53519;SDS011;39397;53.204;5.778;2023-02-21T15:02:27;15.45;;;12.00;;
53519;SDS011;39397;53.204;5.778;2023-02-21T15:05:03;15.82;;;12.25;;
53519;SDS011;39397;53.204;5.778;2023-02-21T15:10:12;17.95;;;12.80;;
53519;SDS011;39397;53.204;5.778;2023-02-21T15:12:42;18.20;;;12.25;;
53519;SDS011;39397;53.204;5.778;2023-02-21T15:17:59;17.27;;;12.20;;
53519;SDS011;39397;53.204;5.778;2023-02-21T15:20:35;16.15;;;12.68;;
53519;SDS011;39397;53.204;5.778;2023-02-21T15:25:34;14.40;;;11.38;;
53519;SDS011;39397;53.204;5.778;2023-02-21T15:28:01;17.40;;;12.50;;
53519;SDS011;39397;53.204;5.778;2023-02-21T15:30:30;16.65;;;12.60;;
53519;SDS011;39397;53.204;5.778;2023-02-21T15:33:06;16.67;;;12.50;;
53519;SDS011;39397;53.204;5.778;2023-02-21T15:36:02;15.18;;;12.23;;
53519;SDS011;39397;53.204;5.778;2023-02-21T15:38:32;14.93;;;12.13;;
53519;SDS011;39397;53.204;5.778;2023-02-21T15:43:57;18.48;;;13.73;;
53519;SDS011;39397;53.204;5.778;2023-02-21T15:46:29;18.02;;;14.07;;
53519;SDS011;39397;53.204;5.778;2023-02-21T15:49:05;24.08;;;14.82;;
53519;SDS011;39397;53.204;5.778;2023-02-21T15:51:31;20.98;;;14.45;;
53519;SDS011;39397;53.204;5.778;2023-02-21T15:54:08;19.23;;;15.63;;
53519;SDS011;39397;53.204;5.778;2023-02-21T15:56:35;20.63;;;16.13;;
53519;SDS011;39397;53.204;5.778;2023-02-21T15:59:15;20.17;;;17.17;;
53519;SDS011;39397;53.204;5.778;2023-02-21T16:02:05;22.60;;;16.83;;
53519;SDS011;39397;53.204;5.778;2023-02-21T16:04:43;21.60;;;16.25;;
53519;SDS011;39397;53.204;5.778;2023-02-21T16:10:07;23.13;;;17.27;;
53519;SDS011;39397;53.204;5.778;2023-02-21T16:12:36;22.00;;;17.85;;
53519;SDS011;39397;53.204;5.778;2023-02-21T16:15:04;23.65;;;18.13;;
53519;SDS011;39397;53.204;5.778;2023-02-21T16:17:44;26.10;;;18.77;;
53519;SDS011;39397;53.204;5.778;2023-02-21T16:20:17;27.50;;;19.00;;
53519;SDS011;39397;53.204;5.778;2023-02-21T16:22:45;26.35;;;19.08;;
53519;SDS011;39397;53.204;5.778;2023-02-21T16:25:22;27.10;;;21.30;;
53519;SDS011;39397;53.204;5.778;2023-02-21T16:30:18;30.33;;;20.95;;
53519;SDS011;39397;53.204;5.778;2023-02-21T16:32:46;24.65;;;20.00;;
53519;SDS011;39397;53.204;5.778;2023-02-21T16:35:14;28.80;;;20.30;;
53519;SDS011;39397;53.204;5.778;2023-02-21T16:37:46;28.02;;;20.38;;
53519;SDS011;39397;53.204;5.778;2023-02-21T16:40:18;28.83;;;20.15;;
53519;SDS011;39397;53.204;5.778;2023-02-21T16:42:49;26.27;;;19.27;;
53519;SDS011;39397;53.204;5.778;2023-02-21T16:45:15;25.50;;;19.75;;
53519;SDS011;39397;53.204;5.778;2023-02-21T16:47:42;26.73;;;20.60;;
53519;SDS011;39397;53.204;5.778;2023-02-21T16:53:10;26.67;;;19.05;;
53519;SDS011;39397;53.204;5.778;2023-02-21T16:55:37;26.25;;;19.40;;
53519;SDS011;39397;53.204;5.778;2023-02-21T16:58:07;30.40;;;21.48;;
53519;SDS011;39397;53.204;5.778;2023-02-21T17:00:41;28.73;;;20.85;;
53519;SDS011;39397;53.204;5.778;2023-02-21T17:03:06;29.58;;;20.35;;
53519;SDS011;39397;53.204;5.778;2023-02-21T17:05:32;28.40;;;20.10;;
53519;SDS011;39397;53.204;5.778;2023-02-21T17:08:00;32.47;;;21.42;;
53519;SDS011;39397;53.204;5.778;2023-02-21T17:10:27;28.88;;;20.42;;
53519;SDS011;39397;53.204;5.778;2023-02-21T17:12:52;27.77;;;19.25;;
53519;SDS011;39397;53.204;5.778;2023-02-21T17:15:18;29.65;;;20.50;;
53519;SDS011;39397;53.204;5.778;2023-02-21T17:17:45;28.88;;;19.83;;
53519;SDS011;39397;53.204;5.778;2023-02-21T17:20:15;29.95;;;20.95;;
53519;SDS011;39397;53.204;5.778;2023-02-21T17:22:42;27.25;;;18.70;;
53519;SDS011;39397;53.204;5.778;2023-02-21T17:25:12;28.42;;;19.63;;
53519;SDS011;39397;53.204;5.778;2023-02-21T17:27:38;30.58;;;20.33;;
53519;SDS011;39397;53.204;5.778;2023-02-21T17:30:04;32.67;;;21.77;;
53519;SDS011;39397;53.204;5.778;2023-02-21T17:32:31;35.28;;;21.85;;
53519;SDS011;39397;53.204;5.778;2023-02-21T17:34:56;35.33;;;23.80;;
53519;SDS011;39397;53.204;5.778;2023-02-21T17:37:22;35.10;;;21.88;;
53519;SDS011;39397;53.204;5.778;2023-02-21T17:39:51;34.67;;;22.35;;
53519;SDS011;39397;53.204;5.778;2023-02-21T17:42:18;35.92;;;23.05;;
53519;SDS011;39397;53.204;5.778;2023-02-21T17:44:44;33.78;;;22.10;;
53519;SDS011;39397;53.204;5.778;2023-02-21T17:47:14;38.92;;;23.65;;
53519;SDS011;39397;53.204;5.778;2023-02-21T17:49:42;38.75;;;24.05;;
53519;SDS011;39397;53.204;5.778;2023-02-21T17:52:07;32.67;;;21.80;;
53519;SDS011;39397;53.204;5.778;2023-02-21T17:54:33;33.67;;;20.27;;
53519;SDS011;39397;53.204;5.778;2023-02-21T17:56:59;30.40;;;20.38;;
53519;SDS011;39397;53.204;5.778;2023-02-21T17:59:25;32.42;;;21.42;;